createdAt,value
2019-05-19T00:00:09.883Z,17.37
2019-05-19T00:02:40.801Z,17.34
2019-05-19T00:05:10.712Z,17.13
2019-05-19T00:07:40.211Z,17.07
2019-05-19T00:10:09.739Z,17.09
2019-05-19T00:12:39.188Z,16.72
2019-05-19T00:15:08.891Z,16.84
2019-05-19T00:17:38.351Z,16.77
2019-05-19T00:20:08.509Z,16.78
2019-05-19T00:22:37.955Z,16.66
2019-05-19T00:25:07.558Z,16.60
2019-05-19T00:27:37.007Z,16.62
2019-05-19T00:30:07.910Z,16.55
2019-05-19T00:32:37.369Z,16.37
2019-05-19T00:35:07.479Z,16.56
2019-05-19T00:37:36.931Z,16.38
2019-05-19T00:40:08.084Z,16.13
2019-05-19T00:42:37.600Z,16.13
2019-05-19T00:45:11.143Z,16.11
2019-05-19T00:47:40.667Z,16.22
2019-05-19T00:50:10.610Z,16.18
2019-05-19T00:52:40.143Z,16.26
2019-05-19T00:55:09.733Z,16.29
2019-05-19T00:57:39.534Z,16.25
2019-05-19T01:00:10.291Z,16.26
2019-05-19T01:02:39.733Z,16.34
2019-05-19T01:05:09.335Z,16.25
2019-05-19T01:07:38.946Z,15.95
2019-05-19T01:10:09.206Z,15.96
2019-05-19T01:12:38.671Z,16.02
2019-05-19T01:15:09.445Z,16.01
2019-05-19T01:17:38.923Z,16.12
2019-05-19T01:20:08.794Z,15.98
2019-05-19T01:22:38.324Z,16.02
2019-05-19T01:25:08.575Z,16.11
2019-05-19T01:27:38.028Z,16.07
2019-05-19T01:30:12.189Z,16.07
2019-05-19T01:32:41.632Z,15.91
2019-05-19T01:35:11.229Z,15.91
2019-05-19T01:37:40.679Z,15.93
2019-05-19T01:40:10.211Z,16.02
2019-05-19T01:42:39.687Z,16.03
2019-05-19T01:45:10.197Z,15.99
2019-05-19T01:47:39.882Z,15.90
2019-05-19T01:50:18.433Z,15.94
2019-05-19T01:52:41.628Z,15.95
2019-05-19T01:55:12.315Z,15.94
2019-05-19T01:57:41.776Z,15.85
2019-05-19T02:00:11.937Z,15.84
2019-05-19T02:02:41.383Z,15.63
2019-05-19T02:05:11.137Z,15.63
2019-05-19T02:07:41.175Z,15.65
2019-05-19T02:10:10.937Z,15.81
2019-05-19T02:12:40.470Z,15.96
2019-05-19T02:15:11.720Z,15.85
2019-05-19T02:17:41.174Z,15.84
2019-05-19T02:20:11.344Z,15.76
2019-05-19T02:22:40.785Z,15.78
2019-05-19T02:25:10.703Z,15.73
2019-05-19T02:27:40.221Z,15.68
2019-05-19T02:30:11.482Z,15.56
2019-05-19T02:32:40.946Z,15.50
2019-05-19T02:35:10.624Z,15.49
2019-05-19T02:37:40.085Z,15.41
2019-05-19T02:40:10.270Z,15.32
2019-05-19T02:42:41.965Z,15.30
2019-05-19T02:45:13.319Z,15.28
2019-05-19T02:47:44.433Z,15.40
2019-05-19T02:50:14.209Z,15.36
2019-05-19T02:52:47.056Z,15.30
2019-05-19T02:55:16.953Z,15.28
2019-05-19T02:57:48.718Z,15.30
2019-05-19T03:00:21.423Z,15.35
2019-05-19T03:02:50.875Z,15.28
2019-05-19T03:05:20.390Z,15.14
2019-05-19T03:07:49.838Z,14.78
2019-05-19T03:10:19.369Z,14.67
2019-05-19T03:12:48.824Z,14.93
2019-05-19T03:15:18.268Z,14.68
2019-05-19T03:17:47.728Z,14.89
2019-05-19T03:20:17.178Z,14.73
2019-05-19T03:22:46.640Z,14.67
2019-05-19T03:25:16.160Z,14.83
2019-05-19T03:27:45.646Z,14.68
2019-05-19T03:30:31.187Z,14.69
2019-05-19T03:33:05.025Z,14.67
2019-05-19T03:35:34.546Z,14.32
2019-05-19T03:38:04.124Z,14.56
2019-05-19T03:40:33.586Z,14.77
2019-05-19T03:43:03.038Z,14.91
2019-05-19T03:45:32.563Z,14.63
2019-05-19T03:48:02.012Z,14.68
2019-05-19T03:50:31.464Z,14.84
2019-05-19T03:53:00.951Z,15.02
2019-05-19T03:55:30.413Z,14.95
2019-05-19T03:57:59.864Z,15.12
2019-05-19T04:00:29.307Z,15.35
2019-05-19T04:02:58.763Z,15.48
2019-05-19T04:05:28.224Z,15.63
2019-05-19T04:07:57.672Z,15.48
2019-05-19T04:10:27.122Z,15.69
2019-05-19T04:12:56.581Z,15.65
2019-05-19T04:15:26.030Z,15.60
2019-05-19T04:17:55.475Z,15.57
2019-05-19T04:20:24.978Z,15.64
2019-05-19T04:22:54.390Z,15.69
2019-05-19T04:25:23.859Z,15.72
2019-05-19T04:27:53.314Z,15.82
2019-05-19T04:30:22.994Z,15.81
2019-05-19T04:32:52.443Z,15.89
2019-05-19T04:35:21.889Z,15.85
2019-05-19T04:37:51.351Z,16.01
2019-05-19T04:40:20.817Z,16.09
2019-05-19T04:42:50.265Z,16.14
2019-05-19T04:45:19.786Z,16.07
2019-05-19T04:47:49.250Z,16.07
2019-05-19T04:50:20.277Z,16.23
2019-05-19T04:52:49.731Z,16.41
2019-05-19T04:55:19.190Z,16.50
2019-05-19T04:57:48.634Z,16.59
2019-05-19T05:00:18.220Z,16.72
2019-05-19T05:02:47.682Z,16.91
2019-05-19T05:05:17.123Z,17.12
2019-05-19T05:07:46.741Z,17.24
2019-05-19T05:10:16.471Z,17.45
2019-05-19T05:12:45.954Z,17.53
2019-05-19T05:15:16.207Z,17.67
2019-05-19T05:17:45.654Z,17.56
2019-05-19T05:20:15.255Z,17.73
2019-05-19T05:22:44.719Z,17.67
2019-05-19T05:25:14.371Z,17.94
2019-05-19T05:27:43.822Z,18.09
2019-05-19T05:30:13.450Z,18.15
2019-05-19T05:32:42.878Z,18.15
2019-05-19T05:35:12.458Z,18.29
2019-05-19T05:37:41.924Z,18.54
2019-05-19T05:40:12.014Z,18.73
2019-05-19T05:42:41.467Z,18.78
2019-05-19T05:45:11.327Z,19.18
2019-05-19T05:47:40.773Z,19.45
2019-05-19T05:50:10.378Z,19.69
2019-05-19T05:52:39.824Z,19.84
2019-05-19T05:55:09.794Z,19.99
2019-05-19T05:57:39.247Z,20.06
2019-05-19T06:00:10.070Z,20.19
2019-05-19T06:02:39.525Z,20.43
2019-05-19T06:05:09.518Z,20.57
2019-05-19T06:07:38.982Z,20.67
2019-05-19T06:10:09.145Z,20.71
2019-05-19T06:12:38.590Z,20.89
2019-05-19T06:15:08.488Z,21.07
2019-05-19T06:17:37.939Z,21.21
2019-05-19T06:20:08.859Z,21.27
2019-05-19T06:22:54.754Z,21.47
2019-05-19T06:25:10.032Z,21.67
2019-05-19T06:27:39.482Z,21.82
2019-05-19T06:30:09.378Z,21.81
2019-05-19T06:32:46.505Z,21.86
2019-05-19T06:35:16.083Z,22.06
2019-05-19T06:37:45.545Z,22.23
2019-05-19T06:40:15.398Z,22.47
2019-05-19T06:42:45.031Z,22.64
2019-05-19T06:45:15.012Z,22.41
2019-05-19T06:47:44.465Z,22.37
2019-05-19T06:50:14.831Z,22.09
2019-05-19T06:52:44.276Z,21.75
2019-05-19T06:55:13.820Z,21.92
2019-05-19T06:57:43.368Z,22.27
2019-05-19T07:00:14.750Z,22.64
2019-05-19T07:02:44.214Z,22.70
2019-05-19T07:05:13.798Z,22.96
2019-05-19T07:07:43.496Z,23.11
2019-05-19T07:10:13.390Z,23.36
2019-05-19T07:12:42.836Z,23.58
2019-05-19T07:15:12.810Z,23.73
2019-05-19T07:17:42.256Z,23.62
2019-05-19T07:20:11.793Z,23.75
2019-05-19T07:22:41.252Z,23.13
2019-05-19T07:25:10.927Z,23.39
2019-05-19T07:27:40.398Z,23.55
2019-05-19T07:30:10.981Z,23.68
2019-05-19T07:32:40.432Z,23.59
2019-05-19T07:35:11.109Z,23.61
2019-05-19T07:37:40.552Z,23.74
2019-05-19T07:40:10.664Z,24.08
2019-05-19T07:42:40.122Z,23.98
2019-05-19T07:45:10.483Z,24.00
2019-05-19T07:47:39.949Z,23.92
2019-05-19T07:50:09.470Z,24.14
2019-05-19T07:52:38.939Z,24.26
2019-05-19T07:55:08.594Z,24.61
2019-05-19T07:57:38.054Z,24.78
2019-05-19T08:00:09.420Z,24.89
2019-05-19T08:02:39.047Z,24.79
2019-05-19T08:05:08.594Z,24.98
2019-05-19T08:07:38.172Z,25.14
2019-05-19T08:10:08.507Z,25.01
2019-05-19T08:12:37.967Z,24.55
2019-05-19T08:15:10.462Z,24.63
2019-05-19T08:17:39.962Z,24.96
2019-05-19T08:20:09.691Z,24.94
2019-05-19T08:22:39.130Z,25.29
2019-05-19T08:25:09.006Z,25.67
2019-05-19T08:27:38.452Z,26.06
2019-05-19T08:30:08.713Z,26.20
2019-05-19T08:32:38.176Z,26.49
2019-05-19T08:35:08.247Z,26.47
2019-05-19T08:37:37.711Z,26.43
2019-05-19T08:40:07.236Z,26.20
2019-05-19T08:42:36.693Z,26.47
2019-05-19T08:45:08.126Z,26.43
2019-05-19T08:47:37.596Z,26.70
2019-05-19T08:50:08.451Z,26.74
2019-05-19T08:52:37.915Z,26.91
2019-05-19T08:55:08.174Z,26.83
2019-05-19T08:57:37.647Z,26.78
2019-05-19T09:00:07.791Z,26.73
2019-05-19T09:02:37.235Z,27.00
2019-05-19T09:05:07.936Z,26.81
2019-05-19T09:07:37.406Z,27.06
2019-05-19T09:10:08.955Z,27.37
2019-05-19T09:12:38.764Z,27.39
2019-05-19T09:15:08.495Z,27.61
2019-05-19T09:17:37.939Z,27.59
2019-05-19T09:20:07.739Z,27.32
2019-05-19T09:22:37.192Z,27.56
2019-05-19T09:25:09.959Z,27.57
2019-05-19T09:27:39.499Z,27.67
2019-05-19T09:30:12.016Z,27.42
2019-05-19T09:32:41.460Z,27.64
2019-05-19T09:35:11.333Z,27.99
2019-05-19T09:37:43.082Z,28.34
2019-05-19T09:40:12.947Z,28.74
2019-05-19T09:42:42.478Z,28.78
2019-05-19T09:45:11.995Z,29.06
2019-05-19T09:47:42.009Z,29.17
2019-05-19T09:50:13.542Z,29.12
2019-05-19T09:52:43.058Z,29.45
2019-05-19T09:55:13.123Z,29.23
2019-05-19T09:57:42.660Z,29.50
2019-05-19T10:00:13.973Z,29.92
2019-05-19T10:02:43.441Z,30.05
2019-05-19T10:05:13.127Z,30.19
2019-05-19T10:07:42.567Z,30.22
2019-05-19T10:10:16.141Z,30.74
2019-05-19T10:12:45.585Z,30.62
2019-05-19T10:15:15.384Z,30.71
2019-05-19T10:17:44.848Z,30.98
2019-05-19T10:20:15.199Z,31.34
2019-05-19T10:22:44.659Z,31.36
2019-05-19T10:25:22.926Z,31.41
2019-05-19T10:27:45.511Z,31.63
2019-05-19T10:30:16.785Z,31.34
2019-05-19T10:32:46.308Z,30.69
2019-05-19T10:35:16.035Z,29.87
2019-05-19T10:37:45.478Z,30.49
2019-05-19T10:40:15.160Z,30.30
2019-05-19T10:42:44.867Z,30.26
2019-05-19T10:45:14.349Z,30.43
2019-05-19T10:47:43.789Z,29.66
2019-05-19T10:50:13.378Z,29.74
2019-05-19T10:52:42.845Z,29.60
2019-05-19T10:55:12.648Z,29.81
2019-05-19T10:57:42.167Z,29.75
2019-05-19T11:00:12.236Z,29.88
2019-05-19T11:02:41.699Z,30.27
2019-05-19T11:05:11.603Z,30.72
2019-05-19T11:07:41.067Z,30.48
2019-05-19T11:10:11.387Z,30.64
2019-05-19T11:12:40.856Z,30.91
2019-05-19T11:15:10.510Z,31.12
2019-05-19T11:17:39.959Z,31.22
2019-05-19T11:20:09.492Z,31.06
2019-05-19T11:22:38.937Z,31.46
2019-05-19T11:25:08.516Z,31.41
2019-05-19T11:27:37.983Z,31.78
2019-05-19T11:30:08.472Z,31.34
2019-05-19T11:32:37.903Z,31.37
2019-05-19T11:35:08.176Z,31.19
2019-05-19T11:37:37.624Z,30.78
2019-05-19T11:40:07.155Z,30.85
2019-05-19T11:42:36.860Z,31.22
2019-05-19T11:45:07.849Z,31.20
2019-05-19T11:47:37.314Z,30.38
2019-05-19T11:50:07.824Z,30.63
2019-05-19T11:52:37.313Z,30.72
2019-05-19T11:55:07.184Z,30.87
2019-05-19T11:57:36.627Z,30.96
2019-05-19T12:00:09.593Z,31.14
2019-05-19T12:02:39.037Z,31.33
2019-05-19T12:05:08.793Z,30.50
2019-05-19T12:07:38.191Z,29.96
2019-05-19T12:10:07.979Z,30.71
2019-05-19T12:12:37.477Z,31.40
2019-05-19T12:15:08.988Z,31.33
2019-05-19T12:17:38.448Z,31.41
2019-05-19T12:20:08.141Z,31.42
2019-05-19T12:22:37.619Z,31.33
2019-05-19T12:25:07.491Z,31.58
2019-05-19T12:27:36.988Z,32.31
2019-05-19T12:30:10.728Z,32.17
2019-05-19T12:32:40.191Z,32.28
2019-05-19T12:35:09.781Z,32.12
2019-05-19T12:37:39.226Z,32.37
2019-05-19T12:40:08.923Z,32.46
2019-05-19T12:42:38.376Z,32.19
2019-05-19T12:45:11.982Z,31.77
2019-05-19T12:47:41.471Z,30.28
2019-05-19T12:50:11.720Z,30.14
2019-05-19T12:52:41.195Z,30.61
2019-05-19T12:55:11.177Z,31.05
2019-05-19T12:57:40.690Z,31.80
2019-05-19T13:00:10.662Z,31.87
2019-05-19T13:02:40.137Z,31.94
2019-05-19T13:05:09.909Z,32.48
2019-05-19T13:07:39.356Z,32.39
2019-05-19T13:10:09.238Z,32.57
2019-05-19T13:12:38.714Z,32.64
2019-05-19T13:15:09.066Z,32.61
2019-05-19T13:17:38.557Z,32.50
2019-05-19T13:20:08.267Z,32.69
2019-05-19T13:22:37.772Z,32.74
2019-05-19T13:25:07.468Z,33.00
2019-05-19T13:27:36.927Z,32.80
2019-05-19T13:30:08.023Z,32.88
2019-05-19T13:32:37.452Z,31.86
2019-05-19T13:35:08.473Z,32.19
2019-05-19T13:37:37.935Z,32.73
2019-05-19T13:40:07.634Z,33.08
2019-05-19T13:42:37.079Z,31.04
2019-05-19T13:45:07.991Z,30.42
2019-05-19T13:47:37.495Z,30.66
2019-05-19T13:50:08.799Z,32.43
2019-05-19T13:52:38.391Z,32.93
2019-05-19T13:55:09.378Z,32.38
2019-05-19T13:57:38.862Z,29.44
2019-05-19T14:00:08.893Z,29.15
2019-05-19T14:02:38.459Z,30.59
2019-05-19T14:05:08.193Z,30.32
2019-05-19T14:07:37.639Z,30.14
2019-05-19T14:10:08.681Z,30.90
2019-05-19T14:12:38.093Z,31.59
2019-05-19T14:15:08.694Z,31.28
2019-05-19T14:17:38.308Z,31.60
2019-05-19T14:20:10.944Z,32.05
2019-05-19T14:22:40.406Z,32.46
2019-05-19T14:25:10.253Z,32.77
2019-05-19T14:27:39.701Z,33.07
2019-05-19T14:30:10.242Z,30.84
2019-05-19T14:32:39.753Z,30.88
2019-05-19T14:35:09.425Z,32.49
2019-05-19T14:37:38.915Z,33.52
2019-05-19T14:40:09.252Z,34.59
2019-05-19T14:42:56.185Z,34.49
2019-05-19T14:45:25.760Z,33.29
2019-05-19T14:47:55.218Z,33.74
2019-05-19T14:50:24.698Z,32.88
2019-05-19T14:52:54.157Z,31.31
2019-05-19T14:55:23.688Z,30.63
2019-05-19T14:57:53.137Z,30.07
2019-05-19T15:00:23.640Z,29.50
2019-05-19T15:02:53.098Z,29.98
2019-05-19T15:05:22.560Z,30.18
2019-05-19T15:07:52.019Z,29.99
2019-05-19T15:10:21.604Z,29.70
2019-05-19T15:12:51.045Z,31.31
2019-05-19T15:15:20.796Z,32.24
2019-05-19T15:17:50.232Z,32.16
2019-05-19T15:20:20.031Z,32.49
2019-05-19T15:22:49.503Z,33.00
2019-05-19T15:25:18.964Z,31.72
2019-05-19T15:27:59.724Z,31.20
2019-05-19T15:30:19.672Z,30.47
2019-05-19T15:32:49.309Z,30.25
2019-05-19T15:35:19.002Z,30.30
2019-05-19T15:37:48.447Z,29.74
2019-05-19T15:40:18.280Z,29.23
2019-05-19T15:42:47.813Z,28.96
2019-05-19T15:45:18.196Z,29.04
2019-05-19T15:47:47.897Z,28.96
2019-05-19T15:50:19.044Z,28.94
2019-05-19T15:52:48.507Z,29.22
2019-05-19T15:55:18.040Z,29.60
2019-05-19T15:57:47.558Z,29.51
2019-05-19T16:00:17.353Z,29.94
2019-05-19T16:02:46.812Z,29.70
2019-05-19T16:05:16.352Z,29.71
2019-05-19T16:07:45.805Z,29.45
2019-05-19T16:10:16.576Z,29.35
2019-05-19T16:12:46.098Z,29.60
2019-05-19T16:15:15.847Z,28.95
2019-05-19T16:17:45.309Z,29.59
2019-05-19T16:20:15.196Z,30.04
2019-05-19T16:22:44.924Z,30.20
2019-05-19T16:25:14.519Z,30.01
2019-05-19T16:27:43.980Z,29.51
2019-05-19T16:30:13.712Z,29.01
2019-05-19T16:32:43.230Z,28.63
2019-05-19T16:35:12.904Z,28.28
2019-05-19T16:37:42.378Z,27.68
2019-05-19T16:40:12.103Z,27.16
2019-05-19T16:42:41.570Z,27.04
2019-05-19T16:45:12.843Z,26.88
2019-05-19T16:47:42.300Z,26.02
2019-05-19T16:50:11.983Z,25.50
2019-05-19T16:52:41.496Z,25.19
2019-05-19T16:55:21.801Z,24.25
2019-05-19T16:57:51.290Z,23.99
2019-05-19T17:00:21.147Z,23.84
2019-05-19T17:02:50.593Z,23.70
2019-05-19T17:05:20.311Z,23.38
2019-05-19T17:07:49.746Z,23.52
2019-05-19T17:10:19.543Z,22.86
2019-05-19T17:12:49.011Z,22.61
2019-05-19T17:15:18.878Z,22.39
2019-05-19T17:17:48.723Z,22.23
2019-05-19T17:20:19.495Z,22.05
2019-05-19T17:22:49.322Z,22.24
2019-05-19T17:25:18.861Z,22.09
2019-05-19T17:27:48.313Z,21.54
2019-05-19T17:30:18.908Z,21.30
2019-05-19T17:32:48.362Z,21.44
2019-05-19T17:35:18.146Z,20.97
2019-05-19T17:37:47.594Z,20.92
2019-05-19T17:40:17.290Z,20.63
2019-05-19T17:42:46.753Z,20.67
2019-05-19T17:45:16.907Z,20.86
2019-05-19T17:47:46.354Z,20.97
2019-05-19T17:50:32.675Z,21.19
2019-05-19T17:53:02.556Z,21.30
2019-05-19T17:55:36.111Z,21.12
2019-05-19T17:58:06.408Z,21.23
2019-05-19T18:00:41.309Z,21.45
2019-05-19T18:03:11.317Z,21.40
2019-05-19T18:05:40.784Z,21.53
2019-05-19T18:08:10.235Z,21.59
2019-05-19T18:10:39.765Z,21.65
2019-05-19T18:13:09.223Z,21.60
2019-05-19T18:15:38.667Z,21.66
2019-05-19T18:18:08.381Z,21.67
2019-05-19T18:20:37.978Z,21.70
2019-05-19T18:23:07.424Z,21.74
2019-05-19T18:25:36.950Z,21.74
2019-05-19T18:28:06.412Z,21.72
2019-05-19T18:30:35.861Z,21.70
2019-05-19T18:33:05.548Z,21.64
2019-05-19T18:35:35.006Z,21.65
2019-05-19T18:38:04.532Z,21.76
2019-05-19T18:40:33.983Z,21.71
2019-05-19T18:43:03.460Z,21.42
2019-05-19T18:45:32.949Z,21.44
2019-05-19T18:48:02.602Z,21.02
2019-05-19T18:50:32.053Z,20.57
2019-05-19T18:53:01.523Z,20.83
2019-05-19T18:55:30.963Z,20.92
2019-05-19T18:58:00.447Z,20.71
2019-05-19T19:00:40.000Z,20.57
2019-05-19T19:03:09.541Z,20.94
2019-05-19T19:05:39.001Z,21.02
2019-05-19T19:08:08.450Z,21.02
2019-05-19T19:10:37.934Z,21.04
2019-05-19T19:13:07.582Z,21.11
2019-05-19T19:15:37.032Z,21.07
2019-05-19T19:18:06.496Z,20.91
2019-05-19T19:20:36.134Z,20.81
2019-05-19T19:23:05.910Z,20.88
2019-05-19T19:25:35.415Z,20.87
2019-05-19T19:28:04.948Z,20.80
2019-05-19T19:30:34.405Z,20.59
2019-05-19T19:33:03.916Z,20.59
2019-05-19T19:35:39.368Z,20.07
2019-05-19T19:38:04.581Z,19.79
2019-05-19T19:40:34.326Z,20.16
2019-05-19T19:43:03.973Z,20.05
2019-05-19T19:45:33.420Z,20.02
2019-05-19T19:48:02.884Z,20.06
2019-05-19T19:50:32.352Z,19.89
2019-05-19T19:53:04.536Z,19.90
2019-05-19T19:55:34.004Z,19.89
2019-05-19T19:58:03.478Z,19.92
2019-05-19T20:00:39.784Z,20.01
2019-05-19T20:03:09.567Z,20.05
2019-05-19T20:05:39.711Z,20.01
2019-05-19T20:08:09.558Z,20.05
2019-05-19T20:10:39.088Z,20.02
2019-05-19T20:13:08.635Z,20.01
2019-05-19T20:15:38.369Z,19.81
2019-05-19T20:18:07.950Z,19.61
2019-05-19T20:20:37.433Z,19.72
2019-05-19T20:23:06.895Z,19.74
2019-05-19T20:25:37.280Z,19.67
2019-05-19T20:28:07.042Z,19.63
2019-05-19T20:30:36.937Z,19.42
2019-05-19T20:33:06.645Z,19.15
2019-05-19T20:35:36.199Z,19.14
2019-05-19T20:38:05.790Z,19.22
2019-05-19T20:40:35.446Z,19.29
2019-05-19T20:43:04.992Z,19.32
2019-05-19T20:45:34.954Z,19.25
2019-05-19T20:48:04.412Z,19.15
2019-05-19T20:50:33.875Z,19.08
2019-05-19T20:53:03.329Z,19.07
2019-05-19T20:55:32.777Z,19.04
2019-05-19T20:58:02.244Z,19.01
2019-05-19T21:00:31.787Z,18.94
2019-05-19T21:03:01.306Z,18.94
2019-05-19T21:05:30.770Z,18.80
2019-05-19T21:08:00.239Z,18.96
2019-05-19T21:10:29.690Z,19.00
2019-05-19T21:12:59.136Z,18.97
2019-05-19T21:15:28.602Z,18.97
2019-05-19T21:17:58.044Z,18.98
2019-05-19T21:20:27.560Z,18.75
2019-05-19T21:22:57.035Z,18.53
2019-05-19T21:25:26.473Z,18.59
2019-05-19T21:27:55.926Z,18.28
2019-05-19T21:30:25.398Z,18.57
2019-05-19T21:32:54.837Z,18.61
2019-05-19T21:35:24.287Z,18.53
2019-05-19T21:37:53.756Z,18.50
2019-05-19T21:40:23.217Z,18.46
2019-05-19T21:42:52.684Z,18.51
2019-05-19T21:45:22.151Z,18.54
2019-05-19T21:47:51.605Z,18.49
2019-05-19T21:50:21.099Z,18.43
2019-05-19T21:52:50.516Z,18.40
2019-05-19T21:55:19.967Z,18.38
2019-05-19T21:57:49.521Z,18.22
2019-05-19T22:00:20.979Z,18.06
2019-05-19T22:02:50.447Z,17.98
2019-05-19T22:05:19.901Z,17.91
2019-05-19T22:07:57.077Z,17.60
2019-05-19T22:10:26.520Z,17.65
2019-05-19T22:12:56.093Z,17.81
2019-05-19T22:15:25.681Z,17.82
2019-05-19T22:17:55.129Z,17.72
2019-05-19T22:20:24.607Z,17.73
2019-05-19T22:22:54.052Z,17.71
2019-05-19T22:25:23.499Z,17.31
2019-05-19T22:27:52.973Z,17.20
2019-05-19T22:30:22.557Z,17.19
2019-05-19T22:32:52.023Z,17.32
2019-05-19T22:35:21.545Z,17.26
2019-05-19T22:37:51.029Z,17.30
2019-05-19T22:40:20.633Z,17.26
2019-05-19T22:42:50.077Z,17.14
2019-05-19T22:45:19.546Z,17.11
2019-05-19T22:47:48.993Z,16.81
2019-05-19T22:50:18.661Z,16.81
2019-05-19T22:52:48.179Z,16.90
2019-05-19T22:55:17.692Z,16.97
2019-05-19T22:57:47.143Z,17.06
2019-05-19T23:00:17.916Z,16.89
2019-05-19T23:02:47.447Z,16.70
2019-05-19T23:05:17.207Z,16.83
2019-05-19T23:07:46.655Z,16.95
2019-05-19T23:10:16.632Z,16.91
2019-05-19T23:12:46.078Z,16.79
2019-05-19T23:15:16.132Z,16.84
2019-05-19T23:17:45.622Z,16.92
2019-05-19T23:20:16.021Z,16.96
2019-05-19T23:22:45.488Z,16.89
2019-05-19T23:25:15.004Z,16.76
2019-05-19T23:27:44.471Z,16.77
2019-05-19T23:30:14.057Z,16.68
2019-05-19T23:32:43.504Z,16.58
2019-05-19T23:35:13.209Z,16.49
2019-05-19T23:37:42.656Z,16.20
2019-05-19T23:40:12.332Z,16.37
2019-05-19T23:42:41.851Z,16.32
2019-05-19T23:45:11.569Z,16.31
2019-05-19T23:47:41.012Z,16.30
2019-05-19T23:50:10.911Z,16.29
2019-05-19T23:52:40.362Z,16.24
2019-05-19T23:55:10.183Z,16.18
2019-05-19T23:57:39.631Z,16.09
